KOQT METAR and TAF weather

Enter ICAO airport designator
Station Type Date Time Source
KOQT METAR 2019/01/21 21:53 UTC NOAA

KOQT 212153Z AUTO VRB03KT 10SM CLR M02/M15 A3046 RMK AO2 SLP337 T10171150


Station Type Date Time Source
KOQT Decoded METAR 2019/01/21 21:53 UTC NOAA

OAK RIDGE, TN, United States (KOQT) 36-01N 84-14W
Jan 21, 2019 - 04:53 PM EST / 2019.01.21 2153 UTC
Wind: Variable at 3 MPH (3 KT):0
Visibility: 10 mile(s):0
Sky conditions: clear
Temperature: 28.9 F (-1.7 C)
Dew Point: 5.0 F (-15.0 C)
Relative Humidity: 35%
Pressure (altimeter): 30.46 in. Hg (1031 hPa)
ob: KOQT 212153Z AUTO VRB03KT 10SM CLR M02/M15 A3046 RMK AO2 SLP337 T10171150
cycle: 22

Station Type Date Time Source
KOQT TAF UTC NOAA

Error!


Example: see airport list